sensor_id;sensor_type;location;lat;lon;timestamp;P1;durP1;ratioP1;P2;durP2;ratioP2
9838;SDS011;4958;48.150;11.506;2023-07-13T00:00:01;3.58;;;2.50;;
9838;SDS011;4958;48.150;11.506;2023-07-13T00:02:33;2.35;;;2.17;;
9838;SDS011;4958;48.150;11.506;2023-07-13T00:05:00;2.50;;;2.30;;
9838;SDS011;4958;48.150;11.506;2023-07-13T00:07:28;4.22;;;2.75;;
9838;SDS011;4958;48.150;11.506;2023-07-13T00:09:56;2.55;;;2.35;;
9838;SDS011;4958;48.150;11.506;2023-07-13T00:12:25;2.65;;;2.40;;
9838;SDS011;4958;48.150;11.506;2023-07-13T00:14:53;2.75;;;2.55;;
9838;SDS011;4958;48.150;11.506;2023-07-13T00:17:21;3.72;;;2.40;;
9838;SDS011;4958;48.150;11.506;2023-07-13T00:19:48;2.45;;;2.22;;
9838;SDS011;4958;48.150;11.506;2023-07-13T00:22:14;2.75;;;2.55;;
9838;SDS011;4958;48.150;11.506;2023-07-13T00:24:42;3.22;;;2.70;;
9838;SDS011;4958;48.150;11.506;2023-07-13T00:27:08;3.00;;;2.33;;
9838;SDS011;4958;48.150;11.506;2023-07-13T00:29:35;3.25;;;2.10;;
9838;SDS011;4958;48.150;11.506;2023-07-13T00:32:02;3.10;;;2.30;;
9838;SDS011;4958;48.150;11.506;2023-07-13T00:34:29;3.10;;;2.42;;
9838;SDS011;4958;48.150;11.506;2023-07-13T00:36:55;2.88;;;2.53;;
9838;SDS011;4958;48.150;11.506;2023-07-13T00:39:22;3.08;;;2.03;;
9838;SDS011;4958;48.150;11.506;2023-07-13T00:41:49;2.30;;;2.10;;
9838;SDS011;4958;48.150;11.506;2023-07-13T00:44:18;3.28;;;2.10;;
9838;SDS011;4958;48.150;11.506;2023-07-13T00:46:45;3.40;;;2.38;;
9838;SDS011;4958;48.150;11.506;2023-07-13T00:49:14;2.20;;;2.10;;
9838;SDS011;4958;48.150;11.506;2023-07-13T00:51:43;3.22;;;2.20;;
9838;SDS011;4958;48.150;11.506;2023-07-13T00:54:13;2.97;;;2.03;;
9838;SDS011;4958;48.150;11.506;2023-07-13T00:56:44;1.88;;;1.77;;
9838;SDS011;4958;48.150;11.506;2023-07-13T00:59:13;2.50;;;2.05;;
9838;SDS011;4958;48.150;11.506;2023-07-13T01:01:42;4.43;;;2.33;;
9838;SDS011;4958;48.150;11.506;2023-07-13T01:04:09;2.78;;;2.10;;
9838;SDS011;4958;48.150;11.506;2023-07-13T01:06:37;3.42;;;2.60;;
9838;SDS011;4958;48.150;11.506;2023-07-13T01:09:04;3.28;;;2.30;;
9838;SDS011;4958;48.150;11.506;2023-07-13T01:11:34;2.63;;;2.05;;
9838;SDS011;4958;48.150;11.506;2023-07-13T01:14:00;2.25;;;2.05;;
9838;SDS011;4958;48.150;11.506;2023-07-13T01:16:29;2.47;;;2.28;;
9838;SDS011;4958;48.150;11.506;2023-07-13T01:18:57;2.42;;;2.10;;
9838;SDS011;4958;48.150;11.506;2023-07-13T01:21:28;3.15;;;1.98;;
9838;SDS011;4958;48.150;11.506;2023-07-13T01:23:56;2.60;;;2.40;;
9838;SDS011;4958;48.150;11.506;2023-07-13T01:26:22;1.75;;;1.65;;
9838;SDS011;4958;48.150;11.506;2023-07-13T01:28:48;2.30;;;2.10;;
9838;SDS011;4958;48.150;11.506;2023-07-13T01:31:15;2.60;;;2.20;;
9838;SDS011;4958;48.150;11.506;2023-07-13T01:33:41;2.30;;;2.00;;
9838;SDS011;4958;48.150;11.506;2023-07-13T01:36:08;2.10;;;2.00;;
9838;SDS011;4958;48.150;11.506;2023-07-13T01:38:37;3.10;;;2.10;;
9838;SDS011;4958;48.150;11.506;2023-07-13T01:41:04;2.33;;;2.13;;
9838;SDS011;4958;48.150;11.506;2023-07-13T01:43:30;2.88;;;1.95;;
9838;SDS011;4958;48.150;11.506;2023-07-13T01:45:57;3.47;;;2.10;;
9838;SDS011;4958;48.150;11.506;2023-07-13T01:48:24;2.88;;;2.15;;
9838;SDS011;4958;48.150;11.506;2023-07-13T01:50:50;2.88;;;2.05;;
9838;SDS011;4958;48.150;11.506;2023-07-13T01:53:16;3.80;;;2.30;;
9838;SDS011;4958;48.150;11.506;2023-07-13T01:55:44;2.95;;;2.35;;
9838;SDS011;4958;48.150;11.506;2023-07-13T01:58:11;4.32;;;2.65;;
9838;SDS011;4958;48.150;11.506;2023-07-13T02:00:37;4.55;;;2.78;;
9838;SDS011;4958;48.150;11.506;2023-07-13T02:03:03;3.67;;;2.53;;
9838;SDS011;4958;48.150;11.506;2023-07-13T02:05:30;3.38;;;2.55;;
9838;SDS011;4958;48.150;11.506;2023-07-13T02:07:56;3.33;;;2.53;;
9838;SDS011;4958;48.150;11.506;2023-07-13T02:10:24;4.20;;;2.50;;
9838;SDS011;4958;48.150;11.506;2023-07-13T02:12:51;4.30;;;2.60;;
9838;SDS011;4958;48.150;11.506;2023-07-13T02:15:18;4.40;;;2.67;;
9838;SDS011;4958;48.150;11.506;2023-07-13T02:17:44;5.13;;;2.95;;
9838;SDS011;4958;48.150;11.506;2023-07-13T02:20:11;3.70;;;2.85;;
9838;SDS011;4958;48.150;11.506;2023-07-13T02:22:37;2.78;;;2.58;;
9838;SDS011;4958;48.150;11.506;2023-07-13T02:25:04;3.15;;;2.65;;
9838;SDS011;4958;48.150;11.506;2023-07-13T02:27:31;4.07;;;2.70;;
9838;SDS011;4958;48.150;11.506;2023-07-13T02:29:59;4.45;;;2.60;;
9838;SDS011;4958;48.150;11.506;2023-07-13T02:32:25;6.10;;;2.65;;
9838;SDS011;4958;48.150;11.506;2023-07-13T02:34:52;3.67;;;2.50;;
9838;SDS011;4958;48.150;11.506;2023-07-13T02:37:18;3.08;;;2.72;;
9838;SDS011;4958;48.150;11.506;2023-07-13T02:39:46;3.85;;;2.80;;
9838;SDS011;4958;48.150;11.506;2023-07-13T02:42:13;4.70;;;3.00;;
9838;SDS011;4958;48.150;11.506;2023-07-13T02:44:39;3.20;;;3.00;;
9838;SDS011;4958;48.150;11.506;2023-07-13T02:47:07;4.28;;;3.20;;
9838;SDS011;4958;48.150;11.506;2023-07-13T02:49:33;3.63;;;3.33;;
9838;SDS011;4958;48.150;11.506;2023-07-13T02:52:01;4.53;;;3.35;;
9838;SDS011;4958;48.150;11.506;2023-07-13T02:54:27;5.32;;;3.13;;
9838;SDS011;4958;48.150;11.506;2023-07-13T02:56:54;3.78;;;3.30;;
9838;SDS011;4958;48.150;11.506;2023-07-13T02:59:20;4.30;;;3.10;;
9838;SDS011;4958;48.150;11.506;2023-07-13T03:01:47;7.13;;;3.30;;
9838;SDS011;4958;48.150;11.506;2023-07-13T03:04:14;4.00;;;3.38;;
9838;SDS011;4958;48.150;11.506;2023-07-13T03:06:44;3.20;;;2.90;;
9838;SDS011;4958;48.150;11.506;2023-07-13T03:09:11;3.85;;;3.10;;
9838;SDS011;4958;48.150;11.506;2023-07-13T03:11:38;4.43;;;3.28;;
9838;SDS011;4958;48.150;11.506;2023-07-13T03:14:04;5.32;;;3.15;;
9838;SDS011;4958;48.150;11.506;2023-07-13T03:16:30;3.38;;;3.05;;
9838;SDS011;4958;48.150;11.506;2023-07-13T03:18:59;3.38;;;2.63;;
9838;SDS011;4958;48.150;11.506;2023-07-13T03:21:26;4.75;;;3.10;;
9838;SDS011;4958;48.150;11.506;2023-07-13T03:23:53;3.40;;;2.75;;
9838;SDS011;4958;48.150;11.506;2023-07-13T03:26:19;3.70;;;3.20;;
9838;SDS011;4958;48.150;11.506;2023-07-13T03:28:46;3.42;;;2.78;;
9838;SDS011;4958;48.150;11.506;2023-07-13T03:31:14;2.95;;;2.70;;
9838;SDS011;4958;48.150;11.506;2023-07-13T03:33:41;4.50;;;3.13;;
9838;SDS011;4958;48.150;11.506;2023-07-13T03:36:11;4.03;;;2.70;;
9838;SDS011;4958;48.150;11.506;2023-07-13T03:38:41;4.45;;;2.90;;
9838;SDS011;4958;48.150;11.506;2023-07-13T03:41:07;4.70;;;3.03;;
9838;SDS011;4958;48.150;11.506;2023-07-13T03:43:34;4.45;;;2.90;;
9838;SDS011;4958;48.150;11.506;2023-07-13T03:46:00;4.07;;;2.65;;
9838;SDS011;4958;48.150;11.506;2023-07-13T03:48:27;4.40;;;2.80;;
9838;SDS011;4958;48.150;11.506;2023-07-13T03:50:53;3.45;;;2.17;;
9838;SDS011;4958;48.150;11.506;2023-07-13T03:53:19;3.25;;;2.47;;
9838;SDS011;4958;48.150;11.506;2023-07-13T03:55:47;3.05;;;2.30;;
9838;SDS011;4958;48.150;11.506;2023-07-13T03:58:24;2.80;;;2.60;;
9838;SDS011;4958;48.150;11.506;2023-07-13T04:00:58;2.95;;;2.33;;
9838;SDS011;4958;48.150;11.506;2023-07-13T04:03:25;2.70;;;2.20;;
9838;SDS011;4958;48.150;11.506;2023-07-13T04:05:53;2.65;;;2.25;;
9838;SDS011;4958;48.150;11.506;2023-07-13T04:08:24;2.78;;;2.50;;
9838;SDS011;4958;48.150;11.506;2023-07-13T04:10:52;2.55;;;2.30;;
9838;SDS011;4958;48.150;11.506;2023-07-13T04:13:19;2.97;;;2.53;;
9838;SDS011;4958;48.150;11.506;2023-07-13T04:15:45;3.17;;;2.58;;
9838;SDS011;4958;48.150;11.506;2023-07-13T04:18:11;2.88;;;2.30;;
9838;SDS011;4958;48.150;11.506;2023-07-13T04:20:41;3.75;;;2.53;;
9838;SDS011;4958;48.150;11.506;2023-07-13T04:23:07;3.75;;;2.30;;
9838;SDS011;4958;48.150;11.506;2023-07-13T04:25:34;2.80;;;2.60;;
9838;SDS011;4958;48.150;11.506;2023-07-13T04:28:02;4.07;;;2.33;;
9838;SDS011;4958;48.150;11.506;2023-07-13T04:30:30;3.65;;;2.60;;
9838;SDS011;4958;48.150;11.506;2023-07-13T04:32:56;2.20;;;2.00;;
9838;SDS011;4958;48.150;11.506;2023-07-13T04:35:23;3.50;;;2.30;;
9838;SDS011;4958;48.150;11.506;2023-07-13T04:37:49;2.75;;;2.50;;
9838;SDS011;4958;48.150;11.506;2023-07-13T04:40:16;3.70;;;2.20;;
9838;SDS011;4958;48.150;11.506;2023-07-13T04:42:43;4.90;;;2.40;;
9838;SDS011;4958;48.150;11.506;2023-07-13T04:45:11;3.25;;;2.25;;
9838;SDS011;4958;48.150;11.506;2023-07-13T04:47:39;2.88;;;2.58;;
9838;SDS011;4958;48.150;11.506;2023-07-13T04:50:05;3.60;;;2.38;;
9838;SDS011;4958;48.150;11.506;2023-07-13T04:52:33;4.88;;;2.58;;
9838;SDS011;4958;48.150;11.506;2023-07-13T04:54:59;3.33;;;2.67;;
9838;SDS011;4958;48.150;11.506;2023-07-13T04:57:26;3.05;;;2.10;;
9838;SDS011;4958;48.150;11.506;2023-07-13T04:59:53;3.03;;;2.47;;
9838;SDS011;4958;48.150;11.506;2023-07-13T05:02:21;2.20;;;2.00;;
9838;SDS011;4958;48.150;11.506;2023-07-13T05:04:48;4.55;;;2.60;;
9838;SDS011;4958;48.150;11.506;2023-07-13T05:07:15;3.35;;;2.80;;
9838;SDS011;4958;48.150;11.506;2023-07-13T05:09:41;2.92;;;2.63;;
9838;SDS011;4958;48.150;11.506;2023-07-13T05:12:08;4.95;;;2.95;;
9838;SDS011;4958;48.150;11.506;2023-07-13T05:14:35;7.15;;;3.45;;
9838;SDS011;4958;48.150;11.506;2023-07-13T05:17:01;4.93;;;2.85;;
9838;SDS011;4958;48.150;11.506;2023-07-13T05:19:29;15.68;;;14.02;;
9838;SDS011;4958;48.150;11.506;2023-07-13T05:21:56;15.57;;;13.98;;
9838;SDS011;4958;48.150;11.506;2023-07-13T05:24:22;12.18;;;6.40;;
9838;SDS011;4958;48.150;11.506;2023-07-13T05:26:49;4.43;;;3.17;;
9838;SDS011;4958;48.150;11.506;2023-07-13T05:29:15;11.57;;;10.50;;
9838;SDS011;4958;48.150;11.506;2023-07-13T05:31:41;9.73;;;8.82;;
9838;SDS011;4958;48.150;11.506;2023-07-13T05:34:08;4.22;;;3.30;;
9838;SDS011;4958;48.150;11.506;2023-07-13T05:36:36;2.53;;;2.30;;
9838;SDS011;4958;48.150;11.506;2023-07-13T05:39:02;2.95;;;2.28;;
9838;SDS011;4958;48.150;11.506;2023-07-13T05:41:31;2.92;;;2.53;;
9838;SDS011;4958;48.150;11.506;2023-07-13T05:44:01;3.63;;;2.80;;
9838;SDS011;4958;48.150;11.506;2023-07-13T05:46:29;4.68;;;2.95;;
9838;SDS011;4958;48.150;11.506;2023-07-13T05:48:56;5.45;;;3.17;;
9838;SDS011;4958;48.150;11.506;2023-07-13T05:51:22;5.50;;;2.92;;
9838;SDS011;4958;48.150;11.506;2023-07-13T05:53:50;3.25;;;2.20;;
9838;SDS011;4958;48.150;11.506;2023-07-13T05:56:17;3.95;;;2.55;;
9838;SDS011;4958;48.150;11.506;2023-07-13T05:58:44;2.72;;;2.40;;
9838;SDS011;4958;48.150;11.506;2023-07-13T06:01:11;3.60;;;2.35;;
9838;SDS011;4958;48.150;11.506;2023-07-13T06:03:39;3.00;;;2.10;;
9838;SDS011;4958;48.150;11.506;2023-07-13T06:06:07;2.75;;;2.53;;
9838;SDS011;4958;48.150;11.506;2023-07-13T06:08:35;4.35;;;2.95;;
9838;SDS011;4958;48.150;11.506;2023-07-13T06:11:04;4.78;;;2.90;;
9838;SDS011;4958;48.150;11.506;2023-07-13T06:13:31;3.58;;;2.60;;
9838;SDS011;4958;48.150;11.506;2023-07-13T06:15:58;4.10;;;2.92;;
9838;SDS011;4958;48.150;11.506;2023-07-13T06:18:25;2.95;;;2.63;;
9838;SDS011;4958;48.150;11.506;2023-07-13T06:20:51;3.60;;;2.60;;
9838;SDS011;4958;48.150;11.506;2023-07-13T06:23:17;5.18;;;2.40;;
9838;SDS011;4958;48.150;11.506;2023-07-13T06:25:44;2.70;;;2.38;;
9838;SDS011;4958;48.150;11.506;2023-07-13T06:28:12;3.35;;;2.40;;
9838;SDS011;4958;48.150;11.506;2023-07-13T06:30:38;3.53;;;2.40;;
9838;SDS011;4958;48.150;11.506;2023-07-13T06:33:05;2.75;;;2.45;;
9838;SDS011;4958;48.150;11.506;2023-07-13T06:35:31;3.13;;;2.40;;
9838;SDS011;4958;48.150;11.506;2023-07-13T06:37:58;5.07;;;2.65;;
9838;SDS011;4958;48.150;11.506;2023-07-13T06:40:25;2.88;;;2.13;;
9838;SDS011;4958;48.150;11.506;2023-07-13T06:42:54;2.92;;;2.13;;
9838;SDS011;4958;48.150;11.506;2023-07-13T06:45:22;4.35;;;2.53;;
9838;SDS011;4958;48.150;11.506;2023-07-13T06:47:48;5.57;;;2.40;;
9838;SDS011;4958;48.150;11.506;2023-07-13T06:50:15;4.82;;;2.33;;
9838;SDS011;4958;48.150;11.506;2023-07-13T06:52:41;3.70;;;1.98;;
9838;SDS011;4958;48.150;11.506;2023-07-13T06:55:08;3.30;;;2.30;;
9838;SDS011;4958;48.150;11.506;2023-07-13T06:57:34;2.60;;;2.00;;
9838;SDS011;4958;48.150;11.506;2023-07-13T07:00:01;4.90;;;2.25;;
9838;SDS011;4958;48.150;11.506;2023-07-13T07:02:29;2.88;;;2.38;;
9838;SDS011;4958;48.150;11.506;2023-07-13T07:04:55;3.15;;;2.33;;
9838;SDS011;4958;48.150;11.506;2023-07-13T07:07:23;3.85;;;2.17;;
9838;SDS011;4958;48.150;11.506;2023-07-13T07:09:50;3.25;;;2.20;;
9838;SDS011;4958;48.150;11.506;2023-07-13T07:12:16;4.25;;;2.00;;
9838;SDS011;4958;48.150;11.506;2023-07-13T07:14:43;2.97;;;2.60;;
9838;SDS011;4958;48.150;11.506;2023-07-13T07:17:09;4.95;;;2.40;;
9838;SDS011;4958;48.150;11.506;2023-07-13T07:19:37;3.72;;;2.28;;
9838;SDS011;4958;48.150;11.506;2023-07-13T07:22:03;4.25;;;2.22;;
9838;SDS011;4958;48.150;11.506;2023-07-13T07:24:30;2.92;;;2.10;;
9838;SDS011;4958;48.150;11.506;2023-07-13T07:26:56;4.40;;;2.30;;
9838;SDS011;4958;48.150;11.506;2023-07-13T07:29:22;4.50;;;2.40;;
9838;SDS011;4958;48.150;11.506;2023-07-13T07:31:51;3.22;;;2.17;;
9838;SDS011;4958;48.150;11.506;2023-07-13T07:34:18;6.22;;;2.78;;
9838;SDS011;4958;48.150;11.506;2023-07-13T07:36:45;3.92;;;2.47;;
9838;SDS011;4958;48.150;11.506;2023-07-13T07:39:12;3.80;;;2.08;;
9838;SDS011;4958;48.150;11.506;2023-07-13T07:41:38;2.53;;;2.33;;
9838;SDS011;4958;48.150;11.506;2023-07-13T07:44:05;3.55;;;2.42;;
9838;SDS011;4958;48.150;11.506;2023-07-13T07:46:32;5.07;;;2.28;;
9838;SDS011;4958;48.150;11.506;2023-07-13T07:48:58;3.35;;;2.30;;
9838;SDS011;4958;48.150;11.506;2023-07-13T07:51:25;4.72;;;2.75;;
9838;SDS011;4958;48.150;11.506;2023-07-13T07:53:54;4.20;;;2.30;;
9838;SDS011;4958;48.150;11.506;2023-07-13T07:56:20;6.05;;;2.20;;
9838;SDS011;4958;48.150;11.506;2023-07-13T07:58:47;4.28;;;2.60;;
9838;SDS011;4958;48.150;11.506;2023-07-13T08:01:13;4.85;;;2.40;;
9838;SDS011;4958;48.150;11.506;2023-07-13T08:03:41;4.05;;;2.22;;
9838;SDS011;4958;48.150;11.506;2023-07-13T08:06:07;2.80;;;2.40;;
9838;SDS011;4958;48.150;11.506;2023-07-13T08:08:34;2.22;;;1.83;;
9838;SDS011;4958;48.150;11.506;2023-07-13T08:11:04;3.35;;;2.25;;
9838;SDS011;4958;48.150;11.506;2023-07-13T08:13:32;4.88;;;2.40;;
9838;SDS011;4958;48.150;11.506;2023-07-13T08:15:59;4.65;;;2.22;;
9838;SDS011;4958;48.150;11.506;2023-07-13T08:18:25;3.92;;;2.20;;
9838;SDS011;4958;48.150;11.506;2023-07-13T08:20:53;2.42;;;2.10;;
9838;SDS011;4958;48.150;11.506;2023-07-13T08:23:21;4.60;;;2.28;;
9838;SDS011;4958;48.150;11.506;2023-07-13T08:25:50;7.00;;;2.55;;
9838;SDS011;4958;48.150;11.506;2023-07-13T08:28:18;3.25;;;2.25;;
9838;SDS011;4958;48.150;11.506;2023-07-13T08:30:45;2.38;;;2.17;;
9838;SDS011;4958;48.150;11.506;2023-07-13T08:33:14;2.67;;;2.22;;
9838;SDS011;4958;48.150;11.506;2023-07-13T08:35:40;3.67;;;2.20;;
9838;SDS011;4958;48.150;11.506;2023-07-13T08:38:06;5.10;;;1.95;;
9838;SDS011;4958;48.150;11.506;2023-07-13T08:40:33;2.33;;;2.00;;
9838;SDS011;4958;48.150;11.506;2023-07-13T08:43:00;4.80;;;2.00;;
9838;SDS011;4958;48.150;11.506;2023-07-13T08:45:29;6.32;;;2.20;;
9838;SDS011;4958;48.150;11.506;2023-07-13T08:48:04;4.72;;;2.05;;
9838;SDS011;4958;48.150;11.506;2023-07-13T08:50:38;3.53;;;2.20;;
9838;SDS011;4958;48.150;11.506;2023-07-13T08:53:14;5.00;;;1.80;;
9838;SDS011;4958;48.150;11.506;2023-07-13T08:55:42;3.80;;;1.80;;
9838;SDS011;4958;48.150;11.506;2023-07-13T08:58:09;4.30;;;1.63;;
9838;SDS011;4958;48.150;11.506;2023-07-13T09:00:41;3.67;;;2.10;;
9838;SDS011;4958;48.150;11.506;2023-07-13T09:03:18;4.35;;;1.70;;
9838;SDS011;4958;48.150;11.506;2023-07-13T09:05:49;3.72;;;1.95;;
9838;SDS011;4958;48.150;11.506;2023-07-13T09:08:33;4.53;;;1.98;;
9838;SDS011;4958;48.150;11.506;2023-07-13T09:11:14;3.75;;;1.88;;
9838;SDS011;4958;48.150;11.506;2023-07-13T09:13:54;6.95;;;2.22;;
9838;SDS011;4958;48.150;11.506;2023-07-13T09:16:33;2.78;;;2.10;;
9838;SDS011;4958;48.150;11.506;2023-07-13T09:19:06;4.20;;;1.85;;
9838;SDS011;4958;48.150;11.506;2023-07-13T09:21:40;5.50;;;2.50;;
9838;SDS011;4958;48.150;11.506;2023-07-13T09:24:28;3.05;;;1.80;;
9838;SDS011;4958;48.150;11.506;2023-07-13T09:27:03;3.35;;;1.70;;
9838;SDS011;4958;48.150;11.506;2023-07-13T09:29:35;6.60;;;1.85;;
9838;SDS011;4958;48.150;11.506;2023-07-13T09:32:10;3.83;;;1.70;;
9838;SDS011;4958;48.150;11.506;2023-07-13T09:34:38;4.40;;;1.75;;
9838;SDS011;4958;48.150;11.506;2023-07-13T09:37:05;3.17;;;1.60;;
9838;SDS011;4958;48.150;11.506;2023-07-13T09:39:33;4.20;;;1.73;;
9838;SDS011;4958;48.150;11.506;2023-07-13T09:42:03;4.20;;;1.65;;
9838;SDS011;4958;48.150;11.506;2023-07-13T09:44:44;2.13;;;1.40;;
9838;SDS011;4958;48.150;11.506;2023-07-13T09:47:20;1.70;;;1.60;;
9838;SDS011;4958;48.150;11.506;2023-07-13T09:49:53;1.50;;;1.40;;
9838;SDS011;4958;48.150;11.506;2023-07-13T09:52:21;3.10;;;1.60;;
9838;SDS011;4958;48.150;11.506;2023-07-13T09:54:49;4.78;;;1.80;;
9838;SDS011;4958;48.150;11.506;2023-07-13T09:57:17;3.58;;;1.75;;
9838;SDS011;4958;48.150;11.506;2023-07-13T09:59:45;5.22;;;1.95;;
9838;SDS011;4958;48.150;11.506;2023-07-13T10:02:28;2.53;;;1.80;;
9838;SDS011;4958;48.150;11.506;2023-07-13T10:04:59;3.80;;;1.90;;
9838;SDS011;4958;48.150;11.506;2023-07-13T10:07:28;4.50;;;1.52;;
9838;SDS011;4958;48.150;11.506;2023-07-13T10:09:55;2.95;;;1.70;;
9838;SDS011;4958;48.150;11.506;2023-07-13T10:12:26;2.40;;;1.55;;
9838;SDS011;4958;48.150;11.506;2023-07-13T10:14:53;3.55;;;1.45;;
9838;SDS011;4958;48.150;11.506;2023-07-13T10:17:25;1.95;;;1.70;;
9838;SDS011;4958;48.150;11.506;2023-07-13T10:19:57;2.25;;;1.40;;
9838;SDS011;4958;48.150;11.506;2023-07-13T10:22:31;4.15;;;1.45;;
9838;SDS011;4958;48.150;11.506;2023-07-13T10:25:07;2.42;;;1.67;;
9838;SDS011;4958;48.150;11.506;2023-07-13T10:27:43;2.38;;;1.75;;
9838;SDS011;4958;48.150;11.506;2023-07-13T10:30:12;5.32;;;1.73;;
9838;SDS011;4958;48.150;11.506;2023-07-13T10:32:42;1.63;;;1.40;;
9838;SDS011;4958;48.150;11.506;2023-07-13T10:35:10;1.83;;;1.55;;
9838;SDS011;4958;48.150;11.506;2023-07-13T10:37:43;3.05;;;1.77;;
9838;SDS011;4958;48.150;11.506;2023-07-13T10:40:14;2.78;;;1.60;;
9838;SDS011;4958;48.150;11.506;2023-07-13T10:42:44;4.13;;;1.80;;
9838;SDS011;4958;48.150;11.506;2023-07-13T10:45:14;4.38;;;1.65;;
9838;SDS011;4958;48.150;11.506;2023-07-13T10:47:44;4.25;;;1.60;;
9838;SDS011;4958;48.150;11.506;2023-07-13T10:50:15;6.50;;;2.08;;
9838;SDS011;4958;48.150;11.506;2023-07-13T10:52:45;2.45;;;1.70;;
9838;SDS011;4958;48.150;11.506;2023-07-13T10:55:30;2.92;;;1.60;;
9838;SDS011;4958;48.150;11.506;2023-07-13T10:58:02;1.98;;;1.60;;
9838;SDS011;4958;48.150;11.506;2023-07-13T11:00:42;2.80;;;1.70;;
9838;SDS011;4958;48.150;11.506;2023-07-13T11:03:13;2.85;;;1.60;;
9838;SDS011;4958;48.150;11.506;2023-07-13T11:05:44;5.57;;;2.20;;
9838;SDS011;4958;48.150;11.506;2023-07-13T11:08:18;2.88;;;1.80;;
9838;SDS011;4958;48.150;11.506;2023-07-13T11:10:51;5.78;;;2.17;;
9838;SDS011;4958;48.150;11.506;2023-07-13T11:13:36;2.63;;;1.50;;
9838;SDS011;4958;48.150;11.506;2023-07-13T11:16:26;2.97;;;1.70;;
9838;SDS011;4958;48.150;11.506;2023-07-13T11:22:02;4.38;;;1.95;;
9838;SDS011;4958;48.150;11.506;2023-07-13T11:24:51;1.92;;;1.27;;
9838;SDS011;4958;48.150;11.506;2023-07-13T11:27:36;2.65;;;1.55;;
9838;SDS011;4958;48.150;11.506;2023-07-13T11:30:13;4.90;;;1.67;;
9838;SDS011;4958;48.150;11.506;2023-07-13T11:32:50;3.45;;;1.60;;
9838;SDS011;4958;48.150;11.506;2023-07-13T11:35:20;2.38;;;1.67;;
9838;SDS011;4958;48.150;11.506;2023-07-13T11:37:49;2.22;;;1.50;;
9838;SDS011;4958;48.150;11.506;2023-07-13T11:40:17;2.53;;;1.50;;
9838;SDS011;4958;48.150;11.506;2023-07-13T11:42:44;6.07;;;1.73;;
9838;SDS011;4958;48.150;11.506;2023-07-13T11:45:18;3.78;;;1.80;;
9838;SDS011;4958;48.150;11.506;2023-07-13T11:47:48;3.72;;;1.70;;
9838;SDS011;4958;48.150;11.506;2023-07-13T11:50:19;2.45;;;1.73;;
9838;SDS011;4958;48.150;11.506;2023-07-13T11:52:47;3.45;;;1.48;;
9838;SDS011;4958;48.150;11.506;2023-07-13T11:55:19;3.40;;;1.60;;
9838;SDS011;4958;48.150;11.506;2023-07-13T11:57:49;2.67;;;1.50;;
9838;SDS011;4958;48.150;11.506;2023-07-13T12:00:18;2.30;;;1.75;;
9838;SDS011;4958;48.150;11.506;2023-07-13T12:02:51;3.42;;;1.40;;
9838;SDS011;4958;48.150;11.506;2023-07-13T12:05:20;3.45;;;1.50;;
9838;SDS011;4958;48.150;11.506;2023-07-13T12:07:47;3.72;;;1.77;;
9838;SDS011;4958;48.150;11.506;2023-07-13T12:10:18;2.55;;;1.55;;
9838;SDS011;4958;48.150;11.506;2023-07-13T12:12:47;2.03;;;1.60;;
9838;SDS011;4958;48.150;11.506;2023-07-13T12:15:16;1.88;;;1.70;;
9838;SDS011;4958;48.150;11.506;2023-07-13T12:17:42;2.60;;;1.45;;
9838;SDS011;4958;48.150;11.506;2023-07-13T12:20:17;4.45;;;1.70;;
9838;SDS011;4958;48.150;11.506;2023-07-13T12:22:50;2.45;;;1.60;;
9838;SDS011;4958;48.150;11.506;2023-07-13T12:25:17;4.97;;;2.15;;
9838;SDS011;4958;48.150;11.506;2023-07-13T12:27:49;2.58;;;1.65;;
9838;SDS011;4958;48.150;11.506;2023-07-13T12:30:24;2.97;;;1.73;;
9838;SDS011;4958;48.150;11.506;2023-07-13T12:32:57;3.10;;;1.80;;
9838;SDS011;4958;48.150;11.506;2023-07-13T12:35:27;2.58;;;1.63;;
9838;SDS011;4958;48.150;11.506;2023-07-13T12:37:58;1.58;;;1.45;;
9838;SDS011;4958;48.150;11.506;2023-07-13T12:40:28;1.70;;;1.42;;
9838;SDS011;4958;48.150;11.506;2023-07-13T12:43:02;2.65;;;1.88;;
9838;SDS011;4958;48.150;11.506;2023-07-13T12:45:31;3.05;;;1.45;;
9838;SDS011;4958;48.150;11.506;2023-07-13T12:48:03;4.60;;;1.85;;
9838;SDS011;4958;48.150;11.506;2023-07-13T12:50:36;5.45;;;1.65;;
9838;SDS011;4958;48.150;11.506;2023-07-13T12:53:06;2.38;;;1.52;;
9838;SDS011;4958;48.150;11.506;2023-07-13T12:55:42;1.80;;;1.50;;
9838;SDS011;4958;48.150;11.506;2023-07-13T12:58:16;2.38;;;1.60;;
9838;SDS011;4958;48.150;11.506;2023-07-13T13:00:48;2.35;;;1.70;;
9838;SDS011;4958;48.150;11.506;2023-07-13T13:03:26;2.80;;;1.70;;
9838;SDS011;4958;48.150;11.506;2023-07-13T13:06:02;5.03;;;1.60;;
9838;SDS011;4958;48.150;11.506;2023-07-13T13:08:31;2.95;;;1.50;;
9838;SDS011;4958;48.150;11.506;2023-07-13T13:11:01;5.05;;;1.67;;
9838;SDS011;4958;48.150;11.506;2023-07-13T13:13:28;3.10;;;1.60;;
9838;SDS011;4958;48.150;11.506;2023-07-13T13:15:55;4.35;;;1.60;;
9838;SDS011;4958;48.150;11.506;2023-07-13T13:18:23;1.50;;;1.40;;
9838;SDS011;4958;48.150;11.506;2023-07-13T13:20:50;2.40;;;1.60;;
9838;SDS011;4958;48.150;11.506;2023-07-13T13:23:20;2.20;;;1.50;;
9838;SDS011;4958;48.150;11.506;2023-07-13T13:25:49;2.60;;;1.50;;
9838;SDS011;4958;48.150;11.506;2023-07-13T13:28:17;1.83;;;1.30;;
9838;SDS011;4958;48.150;11.506;2023-07-13T13:30:45;2.78;;;1.40;;
9838;SDS011;4958;48.150;11.506;2023-07-13T13:33:13;3.28;;;1.83;;
9838;SDS011;4958;48.150;11.506;2023-07-13T13:35:48;2.97;;;1.50;;
9838;SDS011;4958;48.150;11.506;2023-07-13T13:38:19;2.88;;;1.52;;
9838;SDS011;4958;48.150;11.506;2023-07-13T13:40:49;3.88;;;1.42;;
9838;SDS011;4958;48.150;11.506;2023-07-13T13:43:16;3.67;;;1.52;;
9838;SDS011;4958;48.150;11.506;2023-07-13T13:45:43;4.28;;;1.60;;
9838;SDS011;4958;48.150;11.506;2023-07-13T13:48:15;3.85;;;1.67;;
9838;SDS011;4958;48.150;11.506;2023-07-13T13:50:44;1.67;;;1.58;;
9838;SDS011;4958;48.150;11.506;2023-07-13T13:53:11;2.78;;;1.80;;
9838;SDS011;4958;48.150;11.506;2023-07-13T13:55:40;2.47;;;1.42;;
9838;SDS011;4958;48.150;11.506;2023-07-13T13:58:08;2.45;;;1.45;;
9838;SDS011;4958;48.150;11.506;2023-07-13T14:00:35;2.35;;;1.63;;
9838;SDS011;4958;48.150;11.506;2023-07-13T14:03:02;1.55;;;1.45;;
9838;SDS011;4958;48.150;11.506;2023-07-13T14:05:31;1.88;;;1.50;;
9838;SDS011;4958;48.150;11.506;2023-07-13T14:07:58;2.50;;;1.45;;
9838;SDS011;4958;48.150;11.506;2023-07-13T14:10:24;2.10;;;1.50;;
9838;SDS011;4958;48.150;11.506;2023-07-13T14:13:03;1.70;;;1.52;;
9838;SDS011;4958;48.150;11.506;2023-07-13T14:15:33;1.77;;;1.50;;
9838;SDS011;4958;48.150;11.506;2023-07-13T14:18:00;3.45;;;1.40;;
9838;SDS011;4958;48.150;11.506;2023-07-13T14:20:26;1.92;;;1.50;;
9838;SDS011;4958;48.150;11.506;2023-07-13T14:22:54;4.57;;;1.80;;
9838;SDS011;4958;48.150;11.506;2023-07-13T14:25:24;5.45;;;1.80;;
9838;SDS011;4958;48.150;11.506;2023-07-13T14:27:51;2.53;;;1.70;;
9838;SDS011;4958;48.150;11.506;2023-07-13T14:30:25;2.72;;;1.70;;
9838;SDS011;4958;48.150;11.506;2023-07-13T14:32:51;1.80;;;1.58;;
9838;SDS011;4958;48.150;11.506;2023-07-13T14:35:18;2.13;;;1.80;;
9838;SDS011;4958;48.150;11.506;2023-07-13T14:37:54;3.10;;;1.50;;
9838;SDS011;4958;48.150;11.506;2023-07-13T14:40:22;2.60;;;2.03;;
9838;SDS011;4958;48.150;11.506;2023-07-13T14:42:52;4.30;;;1.50;;
9838;SDS011;4958;48.150;11.506;2023-07-13T14:45:20;2.22;;;1.70;;
9838;SDS011;4958;48.150;11.506;2023-07-13T14:47:50;2.38;;;1.40;;
9838;SDS011;4958;48.150;11.506;2023-07-13T14:50:18;2.58;;;1.60;;
9838;SDS011;4958;48.150;11.506;2023-07-13T14:52:46;2.42;;;1.45;;
9838;SDS011;4958;48.150;11.506;2023-07-13T14:55:17;2.40;;;1.60;;
9838;SDS011;4958;48.150;11.506;2023-07-13T14:57:44;2.42;;;1.45;;
9838;SDS011;4958;48.150;11.506;2023-07-13T15:00:21;1.65;;;1.50;;
9838;SDS011;4958;48.150;11.506;2023-07-13T15:02:51;1.85;;;1.65;;
9838;SDS011;4958;48.150;11.506;2023-07-13T15:05:22;2.47;;;1.58;;
9838;SDS011;4958;48.150;11.506;2023-07-13T15:07:49;3.28;;;1.73;;
9838;SDS011;4958;48.150;11.506;2023-07-13T15:10:17;3.97;;;1.60;;
9838;SDS011;4958;48.150;11.506;2023-07-13T15:12:44;2.58;;;1.63;;